DAL88 KCLT-KBNA
Flight info
| Callsign | DAL88 |
|---|---|
| Flight time | 1h 9m |
| Altitude | 34000 |
| Route | BOBZY5 BOBZY BRAYN REWET EDDDY SWFFT3 |
| Aircraft | B739/M-SDE2E3FGHIRWXY/LB1 |
Departure
| Time | 2026-05-04 03:00 |
|---|---|
| Airport | Charlotte Douglas International Airport (KCLT) |
Arrival
| Time | 2026-05-04 04:10 |
|---|---|
| Airport | Nashville International Airport (KBNA) |
| Time | Latitude | Longitude | Altitude | Speed | Heading |
|---|---|---|---|---|---|
| 2026-05-04 02:22 | 35.21759 | -80.94599 | 731 ft | 0 kts | 54° |
| 2026-05-04 02:49 | 35.21754 | -80.94609 | 731 ft | 3 kts | 59° |
| 2026-05-04 02:49 | 35.21743 | -80.94634 | 730 ft | 3 kts | 63° |
| 2026-05-04 02:49 | 35.21734 | -80.94654 | 731 ft | 3 kts | 58° |
| 2026-05-04 02:50 | 35.21725 | -80.94670 | 731 ft | 3 kts | 55° |
| 2026-05-04 02:50 | 35.21711 | -80.94694 | 731 ft | 3 kts | 50° |
| 2026-05-04 02:50 | 35.21695 | -80.94715 | 731 ft | 3 kts | 39° |
| 2026-05-04 02:50 | 35.21676 | -80.94730 | 730 ft | 3 kts | 16° |
| 2026-05-04 02:51 | 35.21654 | -80.94732 | 730 ft | 3 kts | 350° |
| 2026-05-04 02:51 | 35.21634 | -80.94723 | 730 ft | 3 kts | 317° |
| 2026-05-04 02:51 | 35.21622 | -80.94701 | 730 ft | 3 kts | 283° |
| 2026-05-04 02:51 | 35.21619 | -80.94672 | 731 ft | 3 kts | 267° |
| 2026-05-04 02:52 | 35.21621 | -80.94645 | 731 ft | 3 kts | 266° |
| 2026-05-04 02:52 | 35.21621 | -80.94637 | 731 ft | 0 kts | 266° |
| 2026-05-04 02:54 | 35.21621 | -80.94638 | 731 ft | 1 kts | 266° |
| 2026-05-04 02:54 | 35.21618 | -80.94692 | 731 ft | 10 kts | 266° |
| 2026-05-04 02:54 | 35.21613 | -80.94783 | 731 ft | 11 kts | 266° |
| 2026-05-04 02:55 | 35.21602 | -80.94957 | 732 ft | 10 kts | 266° |
| 2026-05-04 02:55 | 35.21629 | -80.95026 | 733 ft | 10 kts | 340° |
| 2026-05-04 02:55 | 35.21696 | -80.95030 | 733 ft | 10 kts | 358° |
| 2026-05-04 02:56 | 35.21764 | -80.95034 | 733 ft | 11 kts | 357° |
| 2026-05-04 02:56 | 35.21854 | -80.95040 | 733 ft | 15 kts | 356° |
| 2026-05-04 02:56 | 35.21966 | -80.95049 | 733 ft | 16 kts | 356° |
| 2026-05-04 02:56 | 35.22076 | -80.95059 | 733 ft | 15 kts | 355° |
| 2026-05-04 02:57 | 35.22181 | -80.95069 | 732 ft | 15 kts | 355° |
| 2026-05-04 02:57 | 35.22281 | -80.95080 | 733 ft | 14 kts | 355° |
| 2026-05-04 02:57 | 35.22378 | -80.95090 | 733 ft | 14 kts | 354° |
| 2026-05-04 02:57 | 35.22470 | -80.95098 | 733 ft | 13 kts | 358° |
| 2026-05-04 02:58 | 35.22559 | -80.95104 | 733 ft | 13 kts | 356° |
| 2026-05-04 02:58 | 35.22645 | -80.95110 | 733 ft | 12 kts | 356° |
| 2026-05-04 02:58 | 35.22722 | -80.95140 | 733 ft | 12 kts | 306° |
| 2026-05-04 02:58 | 35.22731 | -80.95231 | 736 ft | 10 kts | 265° |
| 2026-05-04 02:59 | 35.22699 | -80.95296 | 739 ft | 9 kts | 206° |
| 2026-05-04 02:59 | 35.22637 | -80.95308 | 740 ft | 2 kts | 175° |
| 2026-05-04 03:00 | 35.22633 | -80.95307 | 740 ft | 7 kts | 176° |
| 2026-05-04 03:00 | 35.22271 | -80.95279 | 740 ft | 95 kts | 176° |
| 2026-05-04 03:00 | 35.21359 | -80.95205 | 740 ft | 165 kts | 174° |
| 2026-05-04 03:00 | 35.20126 | -80.95069 | 1423 ft | 174 kts | 175° |
| 2026-05-04 03:01 | 35.18950 | -80.95280 | 2443 ft | 169 kts | 214° |
| 2026-05-04 03:01 | 35.18191 | -80.96434 | 2981 ft | 197 kts | 251° |
| 2026-05-04 03:01 | 35.18101 | -80.98226 | 3253 ft | 226 kts | 270° |
| 2026-05-04 03:01 | 35.18191 | -81.00244 | 3532 ft | 247 kts | 271° |
| 2026-05-04 03:02 | 35.18294 | -81.02377 | 4240 ft | 253 kts | 272° |
| 2026-05-04 03:02 | 35.18395 | -81.04525 | 5141 ft | 254 kts | 272° |
| 2026-05-04 03:02 | 35.18491 | -81.06696 | 5933 ft | 258 kts | 273° |
| 2026-05-04 03:02 | 35.18583 | -81.08901 | 6717 ft | 261 kts | 273° |
| 2026-05-04 03:03 | 35.18673 | -81.11137 | 7462 ft | 265 kts | 274° |
| 2026-05-04 03:03 | 35.18760 | -81.13393 | 7883 ft | 267 kts | 274° |
| 2026-05-04 03:03 | 35.18846 | -81.15667 | 8012 ft | 268 kts | 274° |
| 2026-05-04 03:03 | 35.18930 | -81.17947 | 8019 ft | 268 kts | 274° |
| 2026-05-04 03:04 | 35.19014 | -81.20227 | 8028 ft | 269 kts | 274° |
| 2026-05-04 03:04 | 35.19097 | -81.22515 | 8034 ft | 270 kts | 274° |
| 2026-05-04 03:04 | 35.19181 | -81.24812 | 8035 ft | 270 kts | 274° |
| 2026-05-04 03:04 | 35.19262 | -81.27083 | 8034 ft | 271 kts | 274° |
| 2026-05-04 03:05 | 35.19344 | -81.29386 | 8028 ft | 271 kts | 274° |
| 2026-05-04 03:05 | 35.19426 | -81.31689 | 8022 ft | 271 kts | 274° |
| 2026-05-04 03:05 | 35.19478 | -81.33987 | 8025 ft | 271 kts | 271° |
| 2026-05-04 03:05 | 35.19427 | -81.36297 | 8015 ft | 271 kts | 269° |
| 2026-05-04 03:06 | 35.19350 | -81.38603 | 8011 ft | 271 kts | 269° |
| 2026-05-04 03:06 | 35.19272 | -81.40900 | 8025 ft | 270 kts | 269° |
| 2026-05-04 03:06 | 35.19199 | -81.43197 | 8020 ft | 270 kts | 270° |
| 2026-05-04 03:06 | 35.19131 | -81.45489 | 8022 ft | 270 kts | 270° |
| 2026-05-04 03:07 | 35.19065 | -81.47780 | 8023 ft | 270 kts | 270° |
| 2026-05-04 03:07 | 35.18999 | -81.50073 | 8026 ft | 269 kts | 270° |
| 2026-05-04 03:07 | 35.18935 | -81.52334 | 8025 ft | 269 kts | 270° |
| 2026-05-04 03:07 | 35.18868 | -81.54622 | 8026 ft | 269 kts | 270° |
| 2026-05-04 03:08 | 35.18799 | -81.56911 | 8029 ft | 269 kts | 270° |
| 2026-05-04 03:08 | 35.18729 | -81.59200 | 8027 ft | 269 kts | 270° |
| 2026-05-04 03:08 | 35.18659 | -81.61486 | 8029 ft | 269 kts | 270° |
| 2026-05-04 03:08 | 35.18590 | -81.63794 | 8238 ft | 274 kts | 270° |
| 2026-05-04 03:09 | 35.18537 | -81.66132 | 9004 ft | 276 kts | 271° |
| 2026-05-04 03:09 | 35.18491 | -81.68479 | 9851 ft | 277 kts | 272° |
| 2026-05-04 03:09 | 35.18445 | -81.70863 | 10432 ft | 287 kts | 272° |
| 2026-05-04 03:09 | 35.18398 | -81.73395 | 10610 ft | 310 kts | 271° |
| 2026-05-04 03:10 | 35.18345 | -81.76122 | 10775 ft | 332 kts | 271° |
| 2026-05-04 03:10 | 35.18286 | -81.79028 | 10927 ft | 352 kts | 271° |
| 2026-05-04 03:10 | 35.18221 | -81.82096 | 11189 ft | 367 kts | 270° |
| 2026-05-04 03:10 | 35.18150 | -81.85240 | 11686 ft | 373 kts | 270° |
| 2026-05-04 03:11 | 35.18078 | -81.88422 | 12315 ft | 375 kts | 270° |
| 2026-05-04 03:11 | 35.18004 | -81.91613 | 12978 ft | 376 kts | 270° |
| 2026-05-04 03:11 | 35.17931 | -81.94780 | 13603 ft | 379 kts | 270° |
| 2026-05-04 03:11 | 35.17857 | -81.98010 | 14165 ft | 381 kts | 270° |
| 2026-05-04 03:12 | 35.17781 | -82.01268 | 14709 ft | 384 kts | 270° |
| 2026-05-04 03:12 | 35.17704 | -82.04539 | 15247 ft | 386 kts | 270° |
| 2026-05-04 03:12 | 35.17626 | -82.07836 | 15793 ft | 389 kts | 270° |
| 2026-05-04 03:12 | 35.17547 | -82.11151 | 16316 ft | 391 kts | 270° |
| 2026-05-04 03:13 | 35.17467 | -82.14481 | 16832 ft | 394 kts | 270° |
| 2026-05-04 03:13 | 35.17385 | -82.17838 | 17336 ft | 396 kts | 270° |
| 2026-05-04 03:13 | 35.17477 | -82.21208 | 17819 ft | 398 kts | 277° |
| 2026-05-04 03:13 | 35.18005 | -82.24532 | 18310 ft | 400 kts | 286° |
| 2026-05-04 03:14 | 35.18789 | -82.27800 | 18730 ft | 402 kts | 287° |
| 2026-05-04 03:14 | 35.19591 | -82.31083 | 19177 ft | 404 kts | 287° |
| 2026-05-04 03:14 | 35.20395 | -82.34378 | 19655 ft | 405 kts | 287° |
| 2026-05-04 03:14 | 35.21195 | -82.37692 | 20107 ft | 407 kts | 286° |
| 2026-05-04 03:15 | 35.21991 | -82.41017 | 20534 ft | 408 kts | 286° |
| 2026-05-04 03:15 | 35.22774 | -82.44315 | 20966 ft | 410 kts | 286° |
| 2026-05-04 03:15 | 35.23567 | -82.47677 | 21401 ft | 411 kts | 285° |
| 2026-05-04 03:15 | 35.24361 | -82.51050 | 21806 ft | 414 kts | 285° |
| 2026-05-04 03:16 | 35.25157 | -82.54440 | 22197 ft | 415 kts | 285° |
| 2026-05-04 03:16 | 35.25954 | -82.57840 | 22590 ft | 417 kts | 285° |
| 2026-05-04 03:16 | 35.26754 | -82.61261 | 22983 ft | 419 kts | 285° |
| 2026-05-04 03:16 | 35.27556 | -82.64690 | 23369 ft | 421 kts | 285° |
| 2026-05-04 03:17 | 35.28360 | -82.68138 | 23718 ft | 422 kts | 285° |
| 2026-05-04 03:17 | 35.29169 | -82.71607 | 24027 ft | 424 kts | 285° |
| 2026-05-04 03:17 | 35.29978 | -82.75082 | 24314 ft | 426 kts | 285° |
| 2026-05-04 03:17 | 35.30792 | -82.78580 | 24616 ft | 427 kts | 285° |
| 2026-05-04 03:18 | 35.31604 | -82.82082 | 24922 ft | 428 kts | 285° |
| 2026-05-04 03:18 | 35.32418 | -82.85592 | 25232 ft | 429 kts | 285° |
| 2026-05-04 03:18 | 35.33234 | -82.89118 | 25512 ft | 432 kts | 285° |
| 2026-05-04 03:18 | 35.34052 | -82.92659 | 25798 ft | 433 kts | 285° |
| 2026-05-04 03:19 | 35.34874 | -82.96219 | 26109 ft | 435 kts | 285° |
| 2026-05-04 03:19 | 35.35697 | -82.99790 | 26411 ft | 436 kts | 285° |
| 2026-05-04 03:19 | 35.36510 | -83.03327 | 26723 ft | 436 kts | 285° |
| 2026-05-04 03:19 | 35.37331 | -83.06901 | 27121 ft | 435 kts | 285° |
| 2026-05-04 03:20 | 35.38146 | -83.10457 | 27587 ft | 432 kts | 285° |
| 2026-05-04 03:20 | 35.38956 | -83.13988 | 28086 ft | 429 kts | 285° |
| 2026-05-04 03:20 | 35.39758 | -83.17496 | 28568 ft | 427 kts | 285° |
| 2026-05-04 03:20 | 35.40648 | -83.20960 | 28984 ft | 426 kts | 292° |
| 2026-05-04 03:21 | 35.41933 | -83.24223 | 29432 ft | 424 kts | 298° |
| 2026-05-04 03:21 | 35.43496 | -83.27283 | 29901 ft | 423 kts | 304° |
| 2026-05-04 03:21 | 35.45378 | -83.30059 | 30336 ft | 423 kts | 310° |
| 2026-05-04 03:21 | 35.47391 | -83.32688 | 30703 ft | 422 kts | 311° |
| 2026-05-04 03:22 | 35.49416 | -83.35298 | 31070 ft | 421 kts | 311° |
| 2026-05-04 03:22 | 35.51434 | -83.37901 | 31412 ft | 420 kts | 311° |
| 2026-05-04 03:22 | 35.53438 | -83.40501 | 31789 ft | 418 kts | 310° |
| 2026-05-04 03:22 | 35.55430 | -83.43099 | 32147 ft | 417 kts | 310° |
| 2026-05-04 03:23 | 35.57414 | -83.45700 | 32468 ft | 416 kts | 310° |
| 2026-05-04 03:23 | 35.59384 | -83.48290 | 32845 ft | 414 kts | 310° |
| 2026-05-04 03:23 | 35.61345 | -83.50873 | 33222 ft | 412 kts | 310° |
| 2026-05-04 03:23 | 35.63300 | -83.53450 | 33574 ft | 411 kts | 310° |
| 2026-05-04 03:24 | 35.65240 | -83.56010 | 33889 ft | 410 kts | 310° |
| 2026-05-04 03:24 | 35.67188 | -83.58582 | 34119 ft | 410 kts | 310° |
| 2026-05-04 03:24 | 35.69111 | -83.61125 | 34097 ft | 410 kts | 310° |
| 2026-05-04 03:25 | 35.72990 | -83.66256 | 34090 ft | 408 kts | 310° |
| 2026-05-04 03:25 | 35.76838 | -83.71353 | 34092 ft | 405 kts | 310° |
| 2026-05-04 03:26 | 35.80659 | -83.76422 | 34095 ft | 403 kts | 310° |
| 2026-05-04 03:26 | 35.84469 | -83.81484 | 34101 ft | 402 kts | 310° |
| 2026-05-04 03:27 | 35.88036 | -83.86680 | 34090 ft | 399 kts | 297° |
| 2026-05-04 03:27 | 35.89060 | -83.89844 | 34108 ft | 399 kts | 286° |
| 2026-05-04 03:27 | 35.89554 | -83.93221 | 34098 ft | 401 kts | 276° |
| 2026-05-04 03:27 | 35.89413 | -83.96674 | 34090 ft | 407 kts | 265° |
| 2026-05-04 03:28 | 35.88896 | -84.00120 | 34094 ft | 409 kts | 263° |
| 2026-05-04 03:28 | 35.87700 | -84.06992 | 34088 ft | 411 kts | 262° |
| 2026-05-04 03:29 | 35.86499 | -84.13887 | 34089 ft | 412 kts | 263° |
| 2026-05-04 03:29 | 35.85331 | -84.20805 | 34089 ft | 413 kts | 263° |
| 2026-05-04 03:30 | 35.84174 | -84.27751 | 34087 ft | 414 kts | 263° |
| 2026-05-04 03:30 | 35.83017 | -84.34701 | 34088 ft | 414 kts | 263° |
| 2026-05-04 03:31 | 35.81862 | -84.41615 | 34093 ft | 414 kts | 263° |
| 2026-05-04 03:31 | 35.80694 | -84.48573 | 34093 ft | 415 kts | 263° |
| 2026-05-04 03:32 | 35.79520 | -84.55546 | 33644 ft | 422 kts | 263° |
| 2026-05-04 03:32 | 35.78924 | -84.59089 | 32956 ft | 421 kts | 263° |
| 2026-05-04 03:32 | 35.78326 | -84.62621 | 32103 ft | 421 kts | 263° |
| 2026-05-04 03:32 | 35.77726 | -84.66149 | 31238 ft | 421 kts | 262° |
| 2026-05-04 03:33 | 35.77124 | -84.69692 | 30348 ft | 423 kts | 262° |
| 2026-05-04 03:33 | 35.76520 | -84.73245 | 29310 ft | 424 kts | 262° |
| 2026-05-04 03:33 | 35.75914 | -84.76798 | 28396 ft | 424 kts | 262° |
| 2026-05-04 03:33 | 35.75311 | -84.80317 | 27740 ft | 418 kts | 262° |
| 2026-05-04 03:34 | 35.74721 | -84.83754 | 27094 ft | 412 kts | 261° |
| 2026-05-04 03:34 | 35.74131 | -84.87187 | 26417 ft | 408 kts | 261° |
| 2026-05-04 03:34 | 35.73547 | -84.90588 | 25770 ft | 404 kts | 261° |
| 2026-05-04 03:34 | 35.72967 | -84.93959 | 25143 ft | 401 kts | 261° |
| 2026-05-04 03:35 | 35.72392 | -84.97299 | 24515 ft | 398 kts | 261° |
| 2026-05-04 03:35 | 35.71819 | -85.00621 | 23894 ft | 395 kts | 261° |
| 2026-05-04 03:35 | 35.71249 | -85.03919 | 23176 ft | 394 kts | 261° |
| 2026-05-04 03:35 | 35.70681 | -85.07200 | 22492 ft | 391 kts | 261° |
| 2026-05-04 03:36 | 35.70116 | -85.10457 | 21870 ft | 387 kts | 261° |
| 2026-05-04 03:36 | 35.69556 | -85.13685 | 21228 ft | 384 kts | 261° |
| 2026-05-04 03:36 | 35.69007 | -85.16837 | 20631 ft | 380 kts | 261° |
| 2026-05-04 03:36 | 35.68452 | -85.20016 | 20064 ft | 377 kts | 260° |
| 2026-05-04 03:37 | 35.67895 | -85.23116 | 19880 ft | 366 kts | 260° |
| 2026-05-04 03:37 | 35.67329 | -85.26204 | 19678 ft | 377 kts | 260° |
| 2026-05-04 03:37 | 35.66741 | -85.29413 | 19461 ft | 390 kts | 260° |
| 2026-05-04 03:37 | 35.66138 | -85.32683 | 19226 ft | 391 kts | 259° |
| 2026-05-04 03:38 | 35.65537 | -85.35935 | 18997 ft | 388 kts | 259° |
| 2026-05-04 03:38 | 35.64948 | -85.39119 | 18769 ft | 386 kts | 259° |
| 2026-05-04 03:38 | 35.64353 | -85.42337 | 18564 ft | 384 kts | 259° |
| 2026-05-04 03:38 | 35.63761 | -85.45537 | 18339 ft | 383 kts | 259° |
| 2026-05-04 03:39 | 35.63172 | -85.48723 | 18093 ft | 382 kts | 259° |
| 2026-05-04 03:39 | 35.62780 | -85.50836 | 17942 ft | 381 kts | 259° |
| 2026-05-04 03:39 | 35.61994 | -85.55076 | 17638 ft | 380 kts | 260° |
| 2026-05-04 03:39 | 35.61406 | -85.58240 | 17422 ft | 379 kts | 260° |
| 2026-05-04 03:40 | 35.61018 | -85.60329 | 17276 ft | 379 kts | 260° |
| 2026-05-04 03:40 | 35.60430 | -85.63484 | 17015 ft | 379 kts | 260° |
| 2026-05-04 03:40 | 35.59841 | -85.66644 | 16776 ft | 379 kts | 260° |
| 2026-05-04 03:40 | 35.59251 | -85.69800 | 16551 ft | 379 kts | 260° |
| 2026-05-04 03:41 | 35.58661 | -85.72957 | 16324 ft | 378 kts | 260° |
| 2026-05-04 03:41 | 35.58072 | -85.76097 | 16104 ft | 378 kts | 260° |
| 2026-05-04 03:41 | 35.57483 | -85.79242 | 15880 ft | 377 kts | 260° |
| 2026-05-04 03:41 | 35.56894 | -85.82375 | 15679 ft | 376 kts | 260° |
| 2026-05-04 03:42 | 35.56309 | -85.85473 | 15454 ft | 367 kts | 260° |
| 2026-05-04 03:42 | 35.55967 | -85.88493 | 15224 ft | 350 kts | 275° |
| 2026-05-04 03:42 | 35.56420 | -85.91345 | 15058 ft | 334 kts | 291° |
| 2026-05-04 03:42 | 35.57410 | -85.93852 | 14853 ft | 321 kts | 305° |
| 2026-05-04 03:43 | 35.58804 | -85.95946 | 14698 ft | 313 kts | 312° |
| 2026-05-04 03:43 | 35.60258 | -85.97854 | 14534 ft | 313 kts | 314° |
| 2026-05-04 03:43 | 35.61770 | -85.99810 | 14356 ft | 319 kts | 313° |
| 2026-05-04 03:43 | 35.63292 | -86.01810 | 14179 ft | 320 kts | 313° |
| 2026-05-04 03:44 | 35.64800 | -86.03817 | 13990 ft | 318 kts | 313° |
| 2026-05-04 03:44 | 35.66291 | -86.05813 | 13797 ft | 316 kts | 313° |
| 2026-05-04 03:44 | 35.67751 | -86.07771 | 13602 ft | 314 kts | 313° |
| 2026-05-04 03:44 | 35.69223 | -86.09747 | 13413 ft | 312 kts | 313° |
| 2026-05-04 03:45 | 35.70687 | -86.11712 | 13238 ft | 311 kts | 312° |
| 2026-05-04 03:45 | 35.72068 | -86.13760 | 13052 ft | 311 kts | 308° |
| 2026-05-04 03:45 | 35.73360 | -86.15890 | 12866 ft | 311 kts | 307° |
| 2026-05-04 03:45 | 35.74631 | -86.18042 | 12682 ft | 311 kts | 307° |
| 2026-05-04 03:46 | 35.75903 | -86.20201 | 12511 ft | 311 kts | 307° |
| 2026-05-04 03:46 | 35.77181 | -86.22359 | 12324 ft | 312 kts | 307° |
| 2026-05-04 03:46 | 35.78463 | -86.24515 | 12152 ft | 312 kts | 307° |
| 2026-05-04 03:46 | 35.79747 | -86.26670 | 11960 ft | 312 kts | 307° |
| 2026-05-04 03:47 | 35.81036 | -86.28827 | 11785 ft | 312 kts | 307° |
| 2026-05-04 03:47 | 35.82322 | -86.30979 | 11601 ft | 311 kts | 307° |
| 2026-05-04 03:47 | 35.83605 | -86.33125 | 11423 ft | 311 kts | 307° |
| 2026-05-04 03:47 | 35.84886 | -86.35268 | 11246 ft | 310 kts | 307° |
| 2026-05-04 03:48 | 35.86165 | -86.37409 | 11088 ft | 309 kts | 307° |
| 2026-05-04 03:48 | 35.87437 | -86.39540 | 10885 ft | 309 kts | 307° |
| 2026-05-04 03:48 | 35.88711 | -86.41674 | 10720 ft | 308 kts | 307° |
| 2026-05-04 03:48 | 35.89980 | -86.43802 | 10542 ft | 307 kts | 307° |
| 2026-05-04 03:49 | 35.91221 | -86.45883 | 10368 ft | 302 kts | 307° |
| 2026-05-04 03:49 | 35.92444 | -86.47935 | 10217 ft | 293 kts | 307° |
| 2026-05-04 03:49 | 35.93632 | -86.49932 | 10052 ft | 284 kts | 307° |
| 2026-05-04 03:49 | 35.94778 | -86.51857 | 9970 ft | 268 kts | 307° |
| 2026-05-04 03:50 | 35.95850 | -86.53660 | 9717 ft | 258 kts | 306° |
| 2026-05-04 03:50 | 35.96891 | -86.55410 | 9521 ft | 248 kts | 306° |
| 2026-05-04 03:50 | 35.97911 | -86.57126 | 9320 ft | 249 kts | 306° |
| 2026-05-04 03:50 | 35.99065 | -86.58720 | 9110 ft | 248 kts | 324° |
| 2026-05-04 03:51 | 36.00626 | -86.59516 | 8943 ft | 243 kts | 347° |
| 2026-05-04 03:51 | 36.02317 | -86.59489 | 8776 ft | 248 kts | 9° |
| 2026-05-04 03:51 | 36.03982 | -86.58863 | 8660 ft | 252 kts | 11° |
| 2026-05-04 03:51 | 36.05691 | -86.58318 | 8556 ft | 256 kts | 8° |
| 2026-05-04 03:52 | 36.07430 | -86.57884 | 8295 ft | 254 kts | 8° |
| 2026-05-04 03:52 | 36.09150 | -86.57339 | 7753 ft | 257 kts | 12° |
| 2026-05-04 03:52 | 36.10889 | -86.56709 | 7205 ft | 261 kts | 11° |
| 2026-05-04 03:52 | 36.12602 | -86.56119 | 6923 ft | 253 kts | 11° |
| 2026-05-04 03:53 | 36.14236 | -86.55567 | 6885 ft | 240 kts | 10° |
| 2026-05-04 03:53 | 36.15853 | -86.55036 | 6503 ft | 244 kts | 12° |
| 2026-05-04 03:53 | 36.17500 | -86.54500 | 6249 ft | 240 kts | 8° |
| 2026-05-04 03:53 | 36.19124 | -86.54016 | 5922 ft | 242 kts | 8° |
| 2026-05-04 03:54 | 36.20774 | -86.53520 | 5574 ft | 244 kts | 9° |
| 2026-05-04 03:54 | 36.22433 | -86.53022 | 5246 ft | 246 kts | 8° |
| 2026-05-04 03:54 | 36.24059 | -86.52578 | 5236 ft | 233 kts | 7° |
| 2026-05-04 03:54 | 36.25625 | -86.52171 | 5271 ft | 231 kts | 4° |
| 2026-05-04 03:55 | 36.27215 | -86.51890 | 5295 ft | 227 kts | 1° |
| 2026-05-04 03:55 | 36.28709 | -86.51704 | 5454 ft | 208 kts | 358° |
| 2026-05-04 03:55 | 36.30188 | -86.51581 | 4981 ft | 222 kts | 355° |
| 2026-05-04 03:55 | 36.31861 | -86.51641 | 4554 ft | 258 kts | 347° |
| 2026-05-04 03:56 | 36.33745 | -86.51613 | 4665 ft | 277 kts | 0° |
| 2026-05-04 03:56 | 36.35669 | -86.51625 | 4626 ft | 281 kts | 347° |
| 2026-05-04 03:56 | 36.37500 | -86.52076 | 4637 ft | 262 kts | 340° |
| 2026-05-04 03:56 | 36.39159 | -86.52726 | 4794 ft | 237 kts | 339° |
| 2026-05-04 03:57 | 36.40647 | -86.53616 | 4603 ft | 246 kts | 320° |
| 2026-05-04 03:57 | 36.41927 | -86.55025 | 4574 ft | 248 kts | 306° |
| 2026-05-04 03:57 | 36.42840 | -86.56774 | 4591 ft | 242 kts | 293° |
| 2026-05-04 03:57 | 36.43451 | -86.58704 | 4628 ft | 235 kts | 285° |
| 2026-05-04 03:58 | 36.44128 | -86.62484 | 4383 ft | 238 kts | 277° |
| 2026-05-04 03:58 | 36.44447 | -86.64550 | 3846 ft | 248 kts | 279° |
| 2026-05-04 03:58 | 36.44835 | -86.66664 | 3360 ft | 253 kts | 278° |
| 2026-05-04 03:59 | 36.45217 | -86.68788 | 3068 ft | 252 kts | 283° |
| 2026-05-04 03:59 | 36.46205 | -86.70584 | 3100 ft | 262 kts | 316° |
| 2026-05-04 03:59 | 36.47880 | -86.71603 | 3044 ft | 275 kts | 340° |
| 2026-05-04 03:59 | 36.49769 | -86.71965 | 3025 ft | 278 kts | 356° |
| 2026-05-04 04:00 | 36.51671 | -86.71396 | 2917 ft | 285 kts | 22° |
| 2026-05-04 04:00 | 36.53242 | -86.70038 | 3241 ft | 276 kts | 48° |
| 2026-05-04 04:00 | 36.54245 | -86.68004 | 3357 ft | 281 kts | 67° |
| 2026-05-04 04:00 | 36.54819 | -86.65622 | 3072 ft | 291 kts | 85° |
| 2026-05-04 04:01 | 36.54808 | -86.63151 | 3053 ft | 282 kts | 102° |
| 2026-05-04 04:01 | 36.54363 | -86.60809 | 3030 ft | 277 kts | 116° |
| 2026-05-04 04:01 | 36.53464 | -86.58722 | 2940 ft | 270 kts | 129° |
| 2026-05-04 04:01 | 36.52304 | -86.56960 | 2931 ft | 260 kts | 144° |
| 2026-05-04 04:02 | 36.50855 | -86.55614 | 2792 ft | 258 kts | 154° |
| 2026-05-04 04:02 | 36.49202 | -86.54987 | 2632 ft | 248 kts | 182° |
| 2026-05-04 04:02 | 36.47516 | -86.55037 | 2637 ft | 241 kts | 184° |
| 2026-05-04 04:02 | 36.45833 | -86.55039 | 2554 ft | 240 kts | 184° |
| 2026-05-04 04:03 | 36.44166 | -86.55005 | 2694 ft | 240 kts | 181° |
| 2026-05-04 04:03 | 36.42464 | -86.54902 | 2670 ft | 248 kts | 181° |
| 2026-05-04 04:03 | 36.40813 | -86.54885 | 2668 ft | 228 kts | 193° |
| 2026-05-04 04:03 | 36.39276 | -86.55109 | 2430 ft | 213 kts | 194° |
| 2026-05-04 04:04 | 36.37939 | -86.55452 | 2484 ft | 188 kts | 195° |
| 2026-05-04 04:04 | 36.36665 | -86.55828 | 2335 ft | 187 kts | 194° |
| 2026-05-04 04:04 | 36.35434 | -86.56226 | 2332 ft | 182 kts | 196° |
| 2026-05-04 04:04 | 36.34215 | -86.56598 | 2316 ft | 179 kts | 198° |
| 2026-05-04 04:05 | 36.33049 | -86.57098 | 2345 ft | 175 kts | 201° |
| 2026-05-04 04:05 | 36.31914 | -86.57593 | 2500 ft | 167 kts | 198° |
| 2026-05-04 04:05 | 36.30788 | -86.58076 | 2418 ft | 176 kts | 201° |
| 2026-05-04 04:05 | 36.29659 | -86.58679 | 2548 ft | 180 kts | 211° |
| 2026-05-04 04:06 | 36.28474 | -86.59289 | 2529 ft | 191 kts | 202° |
| 2026-05-04 04:06 | 36.27205 | -86.59846 | 2498 ft | 191 kts | 202° |
| 2026-05-04 04:06 | 36.25998 | -86.60397 | 2445 ft | 179 kts | 204° |
| 2026-05-04 04:06 | 36.24862 | -86.60950 | 2335 ft | 171 kts | 205° |
| 2026-05-04 04:07 | 36.23792 | -86.61451 | 2334 ft | 168 kts | 203° |
| 2026-05-04 04:07 | 36.22705 | -86.61966 | 2241 ft | 164 kts | 202° |
| 2026-05-04 04:07 | 36.21640 | -86.62448 | 2149 ft | 163 kts | 202° |
| 2026-05-04 04:07 | 36.20577 | -86.62971 | 1925 ft | 166 kts | 207° |
| 2026-05-04 04:08 | 36.19500 | -86.63446 | 1854 ft | 165 kts | 198° |
| 2026-05-04 04:08 | 36.18405 | -86.63855 | 1776 ft | 165 kts | 198° |
| 2026-05-04 04:08 | 36.17350 | -86.64255 | 1556 ft | 170 kts | 199° |
| 2026-05-04 04:08 | 36.16515 | -86.64607 | 1334 ft | 169 kts | 201° |
| 2026-05-04 04:09 | 36.15420 | -86.65109 | 1038 ft | 167 kts | 197° |
| 2026-05-04 04:09 | 36.14321 | -86.65544 | 790 ft | 164 kts | 196° |
| 2026-05-04 04:09 | 36.13257 | -86.65963 | 625 ft | 159 kts | 197° |
| 2026-05-04 04:09 | 36.12283 | -86.66359 | 575 ft | 132 kts | 197° |
| 2026-05-04 04:10 | 36.11749 | -86.66568 | 590 ft | 27 kts | 199° |
| 2026-05-04 04:10 | 36.11727 | -86.66578 | 591 ft | 0 kts | 199° |
| 2026-05-04 04:10 | 36.11726 | -86.66578 | 591 ft | 1 kts | 199° |
| 2026-05-04 04:11 | 36.11716 | -86.66582 | 592 ft | 2 kts | 198° |
| 2026-05-04 04:11 | 36.11700 | -86.66592 | 593 ft | 5 kts | 212° |
| 2026-05-04 04:11 | 36.11668 | -86.66631 | 594 ft | 8 kts | 234° |
| 2026-05-04 04:11 | 36.11652 | -86.66692 | 595 ft | 7 kts | 276° |
| 2026-05-04 04:12 | 36.11688 | -86.66729 | 593 ft | 7 kts | 343° |
| 2026-05-04 04:12 | 36.11689 | -86.66730 | 593 ft | 0 kts | 346° |